createdAt,value
2017-05-25T00:00:23.212Z,12.12
2017-05-25T00:02:15.933Z,12.08
2017-05-25T00:02:56.405Z,12.14
2017-05-25T00:03:36.812Z,12.11
2017-05-25T00:04:17.238Z,12.11
2017-05-25T00:04:57.661Z,12.11
2017-05-25T00:05:38.033Z,12.05
2017-05-25T00:06:18.462Z,12.14
2017-05-25T00:06:58.935Z,12.15
2017-05-25T00:07:39.305Z,12.21
2017-05-25T00:08:19.689Z,12.15
2017-05-25T00:09:00.129Z,12.17
2017-05-25T00:09:40.539Z,12.23
2017-05-25T00:10:20.969Z,12.17
2017-05-25T00:11:01.344Z,12.23
2017-05-25T00:11:41.793Z,12.29
2017-05-25T00:12:22.190Z,12.2
2017-05-25T00:13:02.631Z,12.23
2017-05-25T00:13:43.021Z,12.25
2017-05-25T00:14:23.428Z,12.4
2017-05-25T00:15:04.465Z,12.33
2017-05-25T00:15:44.899Z,12.37
2017-05-25T00:16:25.325Z,12.51
2017-05-25T00:17:05.746Z,12.51
2017-05-25T00:17:46.169Z,12.47
2017-05-25T00:18:26.573Z,12.66
2017-05-25T00:19:07.028Z,12.63
2017-05-25T00:19:47.425Z,12.58
2017-05-25T00:20:27.870Z,12.54
2017-05-25T00:21:08.296Z,12.62
2017-05-25T00:21:48.683Z,12.66
2017-05-25T00:23:26.204Z,12.73
2017-05-25T00:24:06.625Z,12.8
2017-05-25T00:24:47.090Z,12.81
2017-05-25T00:25:27.524Z,12.81
2017-05-25T00:26:07.960Z,12.88
2017-05-25T00:26:48.369Z,12.91
2017-05-25T00:27:28.805Z,12.87
2017-05-25T00:28:09.217Z,12.9
2017-05-25T00:28:49.639Z,12.93
2017-05-25T00:29:30.027Z,12.91
2017-05-25T00:30:10.473Z,12.95
2017-05-25T00:30:50.886Z,12.91
2017-05-25T00:31:31.273Z,12.94
2017-05-25T00:32:11.660Z,12.95
2017-05-25T00:33:59.383Z,12.95
2017-05-25T00:34:40.326Z,12.95
2017-05-25T00:35:20.792Z,12.94
2017-05-25T00:37:14.420Z,12.94
2017-05-25T00:37:54.825Z,12.94
2017-05-25T00:38:35.251Z,12.93
2017-05-25T00:39:15.662Z,12.93
2017-05-25T00:39:56.060Z,12.94
2017-05-25T00:40:36.499Z,12.99
2017-05-25T00:41:16.883Z,13.01
2017-05-25T00:41:57.310Z,13.02
2017-05-25T00:42:37.738Z,13.01
2017-05-25T00:43:18.142Z,13.05
2017-05-25T00:44:00.446Z,13.09
2017-05-25T00:44:42.562Z,13.12
2017-05-25T00:45:24.611Z,13.13
2017-05-25T00:46:06.660Z,13.03
2017-05-25T00:46:47.012Z,12.98
2017-05-25T00:47:27.450Z,13.06
2017-05-25T00:48:07.859Z,13.06
2017-05-25T00:48:48.264Z,13.09
2017-05-25T00:49:28.652Z,13.03
2017-05-25T00:51:06.338Z,12.94
2017-05-25T00:51:46.768Z,13.01
2017-05-25T00:52:27.219Z,12.94
2017-05-25T00:53:08.441Z,12.93
2017-05-25T00:53:48.886Z,12.87
2017-05-25T00:54:30.105Z,12.94
2017-05-25T00:55:10.578Z,12.91
2017-05-25T00:55:52.926Z,12.94
2017-05-25T00:56:34.129Z,12.86
2017-05-25T00:57:15.277Z,12.88
2017-05-25T00:57:55.740Z,12.93
2017-05-25T00:58:37.784Z,12.86
2017-05-25T00:59:18.226Z,12.9
2017-05-25T00:59:58.660Z,12.84
2017-05-25T01:00:39.097Z,12.83
2017-05-25T01:01:19.528Z,12.83
2017-05-25T01:01:59.940Z,12.83
2017-05-25T01:02:40.416Z,12.81
2017-05-25T01:03:20.815Z,12.72
2017-05-25T01:04:01.253Z,12.73
2017-05-25T01:04:41.698Z,12.68
2017-05-25T01:05:22.142Z,12.65
2017-05-25T01:06:02.513Z,12.66
2017-05-25T01:07:40.123Z,12.65
2017-05-25T01:08:20.525Z,12.66
2017-05-25T01:09:00.955Z,12.75
2017-05-25T01:09:41.355Z,12.66
2017-05-25T01:11:54.177Z,12.68
2017-05-25T01:12:34.559Z,12.66
2017-05-25T01:13:14.969Z,12.62
2017-05-25T01:13:55.400Z,12.57
2017-05-25T01:14:35.847Z,12.53
2017-05-25T01:15:16.280Z,12.54
2017-05-25T01:15:56.675Z,12.48
2017-05-25T01:16:37.087Z,12.48
2017-05-25T01:17:17.524Z,12.44
2017-05-25T01:17:57.918Z,12.45
2017-05-25T01:18:38.327Z,12.45
2017-05-25T01:19:18.767Z,12.35
2017-05-25T01:19:59.131Z,12.45
2017-05-25T01:20:39.575Z,12.39
2017-05-25T01:21:20.021Z,12.37
2017-05-25T01:22:00.419Z,12.35
2017-05-25T01:22:40.792Z,12.36
2017-05-25T01:24:38.471Z,12.3
2017-05-25T01:25:18.905Z,12.35
2017-05-25T01:25:59.359Z,12.37
2017-05-25T01:26:39.770Z,12.23
2017-05-25T01:27:20.183Z,12.37
2017-05-25T01:28:00.600Z,12.23
2017-05-25T01:28:41.032Z,12.36
2017-05-25T01:29:22.225Z,12.23
2017-05-25T01:30:02.643Z,12.28
2017-05-25T01:30:43.050Z,12.21
2017-05-25T01:31:23.444Z,12.17
2017-05-25T01:32:03.890Z,12.17
2017-05-25T01:33:51.479Z,12.17
2017-05-25T01:34:31.897Z,12.1
2017-05-25T01:35:12.327Z,12.02
2017-05-25T01:35:52.755Z,11.99
2017-05-25T01:36:33.163Z,11.97
2017-05-25T01:37:14.181Z,12.08
2017-05-25T01:37:54.617Z,12
2017-05-25T01:38:35.060Z,12
2017-05-25T01:39:15.463Z,11.91
2017-05-25T01:39:55.911Z,11.96
2017-05-25T01:40:36.311Z,11.89
2017-05-25T01:41:16.714Z,11.96
2017-05-25T01:41:57.164Z,11.93
2017-05-25T01:42:37.576Z,11.91
2017-05-25T01:43:18.001Z,11.93
2017-05-25T01:43:58.398Z,11.89
2017-05-25T01:44:38.861Z,11.89
2017-05-25T01:45:19.254Z,11.85
2017-05-25T01:46:00.250Z,11.85
2017-05-25T01:46:40.702Z,11.76
2017-05-25T01:47:21.080Z,11.68
2017-05-25T01:48:01.518Z,11.71
2017-05-25T01:48:41.937Z,11.71
2017-05-25T01:49:22.346Z,11.73
2017-05-25T01:50:02.763Z,11.71
2017-05-25T01:50:43.154Z,11.68
2017-05-25T01:52:41.031Z,11.62
2017-05-25T01:53:21.444Z,11.65
2017-05-25T01:54:01.883Z,11.62
2017-05-25T01:54:42.288Z,11.58
2017-05-25T01:55:22.702Z,11.58
2017-05-25T01:56:03.183Z,11.51
2017-05-25T01:56:43.584Z,11.51
2017-05-25T01:58:31.244Z,11.44
2017-05-25T01:59:11.663Z,11.44
2017-05-25T01:59:52.101Z,11.49
2017-05-25T02:00:32.533Z,11.53
2017-05-25T02:01:12.949Z,11.55
2017-05-25T02:01:53.366Z,11.38
2017-05-25T02:02:33.785Z,11.44
2017-05-25T02:03:14.210Z,11.41
2017-05-25T02:03:54.681Z,11.37
2017-05-25T02:04:35.109Z,11.45
2017-05-25T02:05:15.494Z,11.37
2017-05-25T02:05:55.927Z,11.45
2017-05-25T02:06:36.327Z,11.27
2017-05-25T02:07:16.686Z,11.3
2017-05-25T02:07:57.139Z,11.27
2017-05-25T02:08:37.545Z,11.34
2017-05-25T02:09:17.972Z,11.3
2017-05-25T02:09:58.355Z,11.34
2017-05-25T02:10:38.820Z,11.25
2017-05-25T02:11:19.200Z,11.38
2017-05-25T02:11:59.642Z,11.23
2017-05-25T02:12:40.067Z,11.23
2017-05-25T02:13:20.446Z,11.16
2017-05-25T02:14:00.856Z,11.19
2017-05-25T02:14:41.241Z,11.26
2017-05-25T02:15:21.658Z,11.13
2017-05-25T02:16:02.105Z,11.22
2017-05-25T02:16:42.552Z,11.2
2017-05-25T02:17:22.945Z,11.19
2017-05-25T02:18:03.337Z,11.15
2017-05-25T02:18:43.808Z,11.15
2017-05-25T02:19:24.245Z,11.08
2017-05-25T02:20:09.241Z,11.08
2017-05-25T02:20:49.650Z,11.08
2017-05-25T02:21:30.053Z,10.98
2017-05-25T02:22:10.479Z,11.04
2017-05-25T02:22:50.893Z,11.01
2017-05-25T02:23:31.358Z,11.02
2017-05-25T02:24:11.794Z,11.01
2017-05-25T02:24:52.195Z,10.89
2017-05-25T02:25:32.660Z,10.92
2017-05-25T02:26:13.075Z,10.94
2017-05-25T02:26:53.485Z,10.98
2017-05-25T02:27:33.890Z,10.95
2017-05-25T02:28:14.268Z,10.94
2017-05-25T02:28:54.682Z,10.89
2017-05-25T02:29:35.104Z,10.84
2017-05-25T02:30:15.520Z,10.92
2017-05-25T02:30:55.949Z,10.84
2017-05-25T02:31:36.307Z,10.92
2017-05-25T02:32:16.804Z,10.86
2017-05-25T02:32:57.200Z,10.9
2017-05-25T02:33:37.614Z,10.84
2017-05-25T02:34:18.045Z,10.86
2017-05-25T02:34:58.448Z,10.84
2017-05-25T02:35:38.844Z,10.84
2017-05-25T02:36:19.295Z,10.82
2017-05-25T02:36:59.781Z,10.8
2017-05-25T02:37:41.073Z,10.82
2017-05-25T02:38:21.449Z,10.84
2017-05-25T02:39:01.896Z,10.76
2017-05-25T02:39:42.372Z,10.84
2017-05-25T02:40:23.356Z,10.84
2017-05-25T02:41:03.733Z,10.87
2017-05-25T02:41:44.152Z,10.83
2017-05-25T02:42:24.583Z,10.87
2017-05-25T02:43:05.009Z,10.82
2017-05-25T02:43:45.413Z,10.83
2017-05-25T02:44:25.802Z,10.82
2017-05-25T02:45:06.254Z,10.84
2017-05-25T02:45:46.663Z,10.84
2017-05-25T02:47:39.430Z,10.86
2017-05-25T02:48:19.884Z,10.9
2017-05-25T02:49:00.305Z,10.92
2017-05-25T02:50:48.028Z,10.84
2017-05-25T02:51:28.443Z,10.86
2017-05-25T02:52:08.886Z,10.98
2017-05-25T02:52:49.349Z,10.95
2017-05-25T02:53:29.757Z,10.95
2017-05-25T02:54:10.228Z,11.02
2017-05-25T02:54:50.583Z,11.02
2017-05-25T02:55:31.029Z,11.07
2017-05-25T02:56:11.405Z,11.01
2017-05-25T02:56:51.803Z,11.05
2017-05-25T02:57:32.250Z,11.08
2017-05-25T02:58:12.648Z,11.04
2017-05-25T02:58:53.081Z,11.04
2017-05-25T02:59:33.502Z,11.12
2017-05-25T03:00:13.939Z,11.08
2017-05-25T03:00:54.388Z,11.02
2017-05-25T03:01:34.789Z,11.12
2017-05-25T03:02:15.183Z,11.1
2017-05-25T03:02:55.584Z,11.08
2017-05-25T03:03:35.996Z,11.05
2017-05-25T03:05:34.334Z,11.07
2017-05-25T03:06:14.811Z,11.04
2017-05-25T03:06:55.162Z,11.07
2017-05-25T03:07:35.595Z,11.1
2017-05-25T03:08:16.044Z,11.02
2017-05-25T03:08:56.443Z,11.16
2017-05-25T03:09:36.873Z,11.08
2017-05-25T03:10:17.264Z,11.08
2017-05-25T03:10:57.689Z,11.05
2017-05-25T03:11:38.091Z,11.1
2017-05-25T03:13:26.086Z,11.08
2017-05-25T03:14:06.910Z,11.12
2017-05-25T03:15:59.789Z,11.07
2017-05-25T03:16:40.189Z,11.12
2017-05-25T03:17:20.644Z,11.12
2017-05-25T03:18:01.042Z,11.08
2017-05-25T03:19:58.808Z,11.1
2017-05-25T03:20:39.267Z,11.02
2017-05-25T03:21:19.691Z,11.04
2017-05-25T03:22:00.206Z,11.01
2017-05-25T03:22:40.705Z,10.89
2017-05-25T03:23:21.095Z,10.9
2017-05-25T03:25:18.878Z,11
2017-05-25T03:25:59.315Z,10.9
2017-05-25T03:26:39.739Z,10.95
2017-05-25T03:27:20.265Z,11
2017-05-25T03:28:00.654Z,10.97
2017-05-25T03:28:41.063Z,10.94
2017-05-25T03:29:21.459Z,10.9
2017-05-25T03:30:01.867Z,10.94
2017-05-25T03:30:42.251Z,10.94
2017-05-25T03:31:22.723Z,10.87
2017-05-25T03:32:03.125Z,10.98
2017-05-25T03:32:43.551Z,10.92
2017-05-25T03:33:24.022Z,10.92
2017-05-25T03:34:04.436Z,10.95
2017-05-25T03:34:44.935Z,11.01
2017-05-25T03:36:57.800Z,11.08
2017-05-25T03:37:38.187Z,11.1
2017-05-25T03:38:18.614Z,11.19
2017-05-25T03:38:59.035Z,11.13
2017-05-25T03:39:39.464Z,11.2
2017-05-25T03:41:37.333Z,11.27
2017-05-25T03:42:17.715Z,11.31
2017-05-25T03:42:58.099Z,11.25
2017-05-25T03:43:38.512Z,11.3
2017-05-25T03:44:18.918Z,11.3
2017-05-25T03:44:59.372Z,11.3
2017-05-25T03:45:39.813Z,11.33
2017-05-25T03:46:20.195Z,11.31
2017-05-25T03:47:00.614Z,11.33
2017-05-25T03:47:41.024Z,11.26
2017-05-25T03:48:21.485Z,11.3
2017-05-25T03:49:01.896Z,11.3
2017-05-25T03:49:42.358Z,11.35
2017-05-25T03:50:22.771Z,11.38
2017-05-25T03:51:03.203Z,11.43
2017-05-25T03:51:43.679Z,11.37
2017-05-25T03:52:24.184Z,11.38
2017-05-25T03:53:04.475Z,11.43
2017-05-25T03:53:45.848Z,11.35
2017-05-25T03:55:58.720Z,11.27
2017-05-25T03:56:39.177Z,11.38
2017-05-25T03:57:19.722Z,11.3
2017-05-25T03:58:00.339Z,11.37
2017-05-25T03:58:40.741Z,11.3
2017-05-25T03:59:21.154Z,11.48
2017-05-25T04:00:01.587Z,11.4
2017-05-25T04:00:42.035Z,11.4
2017-05-25T04:01:22.516Z,11.43
2017-05-25T04:02:02.910Z,11.41
2017-05-25T04:02:43.314Z,11.45
2017-05-25T04:03:23.764Z,11.49
2017-05-25T04:04:04.176Z,11.52
2017-05-25T04:04:44.592Z,11.45
2017-05-25T04:05:25.034Z,11.52
2017-05-25T04:06:05.453Z,11.59
2017-05-25T04:06:45.877Z,11.52
2017-05-25T04:07:26.289Z,11.62
2017-05-25T04:08:06.677Z,11.62
2017-05-25T04:08:47.182Z,11.63
2017-05-25T04:09:27.556Z,11.62
2017-05-25T04:11:25.425Z,11.67
2017-05-25T04:12:05.858Z,11.73
2017-05-25T04:12:46.275Z,11.73
2017-05-25T04:13:26.726Z,11.73
2017-05-25T04:14:07.157Z,11.7
2017-05-25T04:15:44.807Z,11.67
2017-05-25T04:16:25.212Z,11.65
2017-05-25T04:17:05.677Z,11.59
2017-05-25T04:17:46.274Z,11.65
2017-05-25T04:18:26.701Z,11.65
2017-05-25T04:19:08.047Z,11.67
2017-05-25T04:19:48.479Z,11.73
2017-05-25T04:20:28.911Z,11.8
2017-05-25T04:21:09.346Z,11.71
2017-05-25T04:21:50.299Z,11.83
2017-05-25T04:22:30.735Z,11.85
2017-05-25T04:24:23.675Z,11.96
2017-05-25T04:25:04.081Z,11.89
2017-05-25T04:25:44.521Z,11.89
2017-05-25T04:26:25.733Z,11.97
2017-05-25T04:27:06.409Z,12.02
2017-05-25T04:27:46.802Z,11.99
2017-05-25T04:28:27.229Z,12.07
2017-05-25T04:29:07.619Z,12.11
2017-05-25T04:29:48.030Z,12.1
2017-05-25T04:31:25.779Z,12.17
2017-05-25T04:32:06.442Z,12.2
2017-05-25T04:32:46.835Z,12.2
2017-05-25T04:33:27.257Z,12.3
2017-05-25T04:34:07.639Z,12.23
2017-05-25T04:34:48.899Z,12.18
2017-05-25T04:35:29.340Z,12.26
2017-05-25T04:36:10.512Z,12.32
2017-05-25T04:36:50.930Z,12.32
2017-05-25T04:37:31.302Z,12.28
2017-05-25T04:38:11.718Z,12.39
2017-05-25T04:38:52.135Z,12.5
2017-05-25T04:39:32.539Z,12.45
2017-05-25T04:40:12.976Z,12.51
2017-05-25T04:40:55.015Z,12.66
2017-05-25T04:41:35.941Z,12.7
2017-05-25T04:42:16.356Z,12.62
2017-05-25T04:42:57.660Z,12.66
2017-05-25T04:43:38.078Z,12.72
2017-05-25T04:44:19.261Z,12.7
2017-05-25T04:44:59.749Z,12.72
2017-05-25T04:45:40.208Z,12.76
2017-05-25T04:46:20.655Z,12.84
2017-05-25T04:47:01.029Z,12.84
2017-05-25T04:47:41.566Z,12.86
2017-05-25T04:48:24.305Z,12.91
2017-05-25T04:49:05.514Z,12.9
2017-05-25T04:51:19.223Z,13.09
2017-05-25T04:52:00.442Z,13.02
2017-05-25T04:52:40.848Z,13.01
2017-05-25T04:55:05.280Z,13.21
2017-05-25T04:56:59.962Z,13.42
2017-05-25T04:57:42.092Z,13.43
2017-05-25T04:59:31.306Z,13.62
2017-05-25T05:00:15.453Z,13.68
2017-05-25T05:02:28.316Z,13.8
2017-05-25T05:03:08.822Z,13.89
2017-05-25T05:03:49.193Z,13.94
2017-05-25T05:04:29.614Z,14
2017-05-25T05:05:10.043Z,14.01
2017-05-25T05:07:23.525Z,14.16
2017-05-25T05:08:03.947Z,14.2
2017-05-25T05:08:44.458Z,14.23
2017-05-25T05:09:24.884Z,14.23
2017-05-25T05:10:05.338Z,14.22
2017-05-25T05:10:45.786Z,14.34
2017-05-25T05:12:59.625Z,14.48
2017-05-25T05:13:40.037Z,14.51
2017-05-25T05:14:20.485Z,14.53
2017-05-25T05:15:00.922Z,14.59
2017-05-25T05:15:42.006Z,14.63
2017-05-25T05:16:22.439Z,14.56
2017-05-25T05:17:02.818Z,14.7
2017-05-25T05:17:43.248Z,14.74
2017-05-25T05:18:23.654Z,14.73
2017-05-25T05:19:04.240Z,14.81
2017-05-25T05:19:44.608Z,14.9
2017-05-25T05:20:25.024Z,14.82
2017-05-25T05:21:05.473Z,14.97
2017-05-25T05:21:45.963Z,14.92
2017-05-25T05:22:26.356Z,14.99
2017-05-25T05:23:07.059Z,14.99
2017-05-25T05:23:47.507Z,14.96
2017-05-25T05:24:27.939Z,15.04
2017-05-25T05:25:08.346Z,15.02
2017-05-25T05:25:48.761Z,15
2017-05-25T05:26:29.170Z,15.04
2017-05-25T05:27:09.579Z,15.11
2017-05-25T05:27:49.957Z,15.08
2017-05-25T05:28:30.351Z,15.26
2017-05-25T05:29:10.767Z,15.18
2017-05-25T05:29:51.210Z,15.27
2017-05-25T05:30:31.630Z,15.27
2017-05-25T05:31:12.074Z,15.35
2017-05-25T05:31:52.506Z,15.35
2017-05-25T05:32:32.904Z,15.35
2017-05-25T05:33:13.337Z,15.37
2017-05-25T05:33:53.802Z,15.36
2017-05-25T05:34:34.153Z,15.35
2017-05-25T05:35:14.628Z,15.39
2017-05-25T05:35:55.828Z,15.37
2017-05-25T05:36:36.315Z,15.48
2017-05-25T05:37:16.686Z,15.45
2017-05-25T05:37:57.112Z,15.5
2017-05-25T05:38:37.543Z,15.55
2017-05-25T05:39:18.000Z,15.57
2017-05-25T05:39:58.713Z,15.63
2017-05-25T05:40:39.148Z,15.59
2017-05-25T05:41:19.580Z,15.67
2017-05-25T05:42:00.052Z,15.6
2017-05-25T05:42:40.434Z,15.67
2017-05-25T05:43:22.611Z,15.72
2017-05-25T05:44:04.895Z,15.78
2017-05-25T05:44:46.346Z,15.85
2017-05-25T05:45:27.352Z,15.91
2017-05-25T05:46:09.582Z,15.98
2017-05-25T05:46:50.476Z,15.99
2017-05-25T05:47:30.868Z,16.12
2017-05-25T05:48:12.237Z,16.24
2017-05-25T05:48:52.658Z,16.28
2017-05-25T05:49:33.733Z,16.26
2017-05-25T05:50:16.177Z,16.34
2017-05-25T05:50:56.330Z,16.34
2017-05-25T05:51:37.609Z,16.37
2017-05-25T05:52:18.038Z,16.4
2017-05-25T05:52:58.423Z,16.44
2017-05-25T05:53:38.853Z,16.47
2017-05-25T05:54:19.321Z,16.49
2017-05-25T05:55:01.749Z,16.46
2017-05-25T05:55:42.172Z,16.61
2017-05-25T05:56:22.750Z,16.65
2017-05-25T05:57:03.137Z,16.72
2017-05-25T05:57:43.618Z,16.79
2017-05-25T05:58:24.919Z,16.8
2017-05-25T05:59:05.286Z,16.91
2017-05-25T05:59:45.713Z,16.89
2017-05-25T06:00:26.120Z,17.12
2017-05-25T06:01:06.541Z,17.14
2017-05-25T06:01:46.982Z,17.13
2017-05-25T06:02:27.559Z,17.16
2017-05-25T06:04:05.170Z,17.24
2017-05-25T06:04:45.600Z,17.3
2017-05-25T06:05:26.019Z,17.41
2017-05-25T06:06:06.437Z,17.5
2017-05-25T06:06:46.818Z,17.59
2017-05-25T06:07:27.200Z,17.53
2017-05-25T06:08:07.671Z,17.72
2017-05-25T06:08:48.077Z,17.82
2017-05-25T06:09:28.507Z,17.86
2017-05-25T06:10:08.931Z,17.88
2017-05-25T06:10:49.335Z,17.93
2017-05-25T06:11:29.764Z,17.93
2017-05-25T06:12:10.214Z,17.97
2017-05-25T06:12:50.631Z,17.95
2017-05-25T06:13:31.026Z,17.94
2017-05-25T06:14:11.447Z,18.09
2017-05-25T06:14:51.879Z,18.03
2017-05-25T06:15:32.351Z,18.06
2017-05-25T06:16:13.068Z,18.19
2017-05-25T06:16:53.498Z,18.3
2017-05-25T06:17:33.948Z,18.34
2017-05-25T06:18:14.366Z,18.41
2017-05-25T06:18:54.795Z,18.51
2017-05-25T06:19:35.260Z,18.6
2017-05-25T06:20:15.668Z,18.64
2017-05-25T06:20:56.110Z,18.66
2017-05-25T06:21:36.517Z,18.74
2017-05-25T06:22:16.934Z,18.81
2017-05-25T06:22:57.364Z,18.86
2017-05-25T06:23:37.794Z,18.97
2017-05-25T06:24:18.248Z,18.94
2017-05-25T06:24:58.687Z,18.89
2017-05-25T06:25:39.064Z,18.91
2017-05-25T06:26:19.498Z,18.88
2017-05-25T06:26:59.918Z,19.01
2017-05-25T06:27:40.343Z,19
2017-05-25T06:28:20.749Z,19.12
2017-05-25T06:29:01.204Z,19.16
2017-05-25T06:29:41.639Z,19.19
2017-05-25T06:31:19.159Z,19.22
2017-05-25T06:31:59.593Z,19.35
2017-05-25T06:32:40.005Z,19.45
2017-05-25T06:33:20.439Z,19.47
2017-05-25T06:34:00.859Z,19.62
2017-05-25T06:34:41.270Z,19.64
2017-05-25T06:35:21.736Z,19.7
2017-05-25T06:36:02.100Z,19.79
2017-05-25T06:38:15.156Z,19.81
2017-05-25T06:38:55.583Z,19.74
2017-05-25T06:39:36.037Z,19.79
2017-05-25T06:40:16.470Z,19.77
2017-05-25T06:40:56.902Z,19.67
2017-05-25T06:41:37.323Z,19.63
2017-05-25T06:42:17.749Z,19.53
2017-05-25T06:42:58.172Z,19.47
2017-05-25T06:43:38.623Z,19.53
2017-05-25T06:44:19.041Z,19.41
2017-05-25T06:44:59.491Z,19.49
2017-05-25T06:45:39.919Z,19.48
2017-05-25T06:46:20.331Z,19.56
2017-05-25T06:47:00.705Z,19.49
2017-05-25T06:47:41.120Z,19.62
2017-05-25T06:48:21.527Z,19.85
2017-05-25T06:49:01.930Z,19.96
2017-05-25T06:49:42.350Z,20.18
2017-05-25T06:50:22.785Z,20.39
2017-05-25T06:52:35.904Z,21.05
2017-05-25T06:53:16.359Z,21.2
2017-05-25T06:53:56.827Z,21.35
2017-05-25T06:54:37.224Z,21.47
2017-05-25T06:55:17.620Z,21.65
2017-05-25T06:55:58.070Z,21.75
2017-05-25T06:56:38.505Z,21.81
2017-05-25T06:57:18.889Z,21.78
2017-05-25T06:57:59.311Z,21.75
2017-05-25T06:58:39.803Z,21.75
2017-05-25T06:59:20.227Z,21.65
2017-05-25T07:00:00.683Z,21.56
2017-05-25T07:00:41.094Z,21.48
2017-05-25T07:01:21.508Z,21.35
2017-05-25T07:02:01.977Z,21.19
2017-05-25T07:02:42.361Z,20.96
2017-05-25T07:03:22.746Z,20.83
2017-05-25T07:04:03.180Z,20.8
2017-05-25T07:04:43.900Z,20.74
2017-05-25T07:05:24.513Z,20.66
2017-05-25T07:06:04.913Z,20.66
2017-05-25T07:06:45.399Z,20.64
2017-05-25T07:08:33.154Z,20.56
2017-05-25T07:09:13.794Z,20.44
2017-05-25T07:09:54.278Z,20.48
2017-05-25T07:10:34.721Z,20.29
2017-05-25T07:11:15.120Z,20.34
2017-05-25T07:13:13.462Z,20.29
2017-05-25T07:13:54.142Z,20.15
2017-05-25T07:14:34.593Z,20.19
2017-05-25T07:15:15.029Z,20.21
2017-05-25T07:15:55.480Z,20.19
2017-05-25T07:16:35.939Z,20.08
2017-05-25T07:17:16.349Z,20.12
2017-05-25T07:17:56.866Z,20.08
2017-05-25T07:18:37.246Z,20.08
2017-05-25T07:19:17.706Z,20.12
2017-05-25T07:19:58.151Z,20.1
2017-05-25T07:20:38.589Z,20.18
2017-05-25T07:22:51.460Z,20.32
2017-05-25T07:23:31.879Z,20.44
2017-05-25T07:24:12.299Z,20.53
2017-05-25T07:24:52.739Z,20.59
2017-05-25T07:25:33.189Z,20.64
2017-05-25T07:27:46.034Z,20.7
2017-05-25T07:29:58.761Z,20.63
2017-05-25T07:30:39.193Z,20.7
2017-05-25T07:31:19.620Z,20.55
2017-05-25T07:32:00.045Z,20.67
2017-05-25T07:32:40.514Z,20.75
2017-05-25T07:33:21.159Z,20.85
2017-05-25T07:34:01.580Z,20.82
2017-05-25T07:34:41.991Z,21
2017-05-25T07:36:29.835Z,21.37
2017-05-25T07:37:10.284Z,21.38
2017-05-25T07:37:50.685Z,21.66
2017-05-25T07:38:31.115Z,21.8
2017-05-25T07:39:11.532Z,21.94
2017-05-25T07:39:51.945Z,22.23
2017-05-25T07:40:33.313Z,22.53
2017-05-25T07:41:13.713Z,22.68
2017-05-25T07:41:54.225Z,22.81
2017-05-25T07:42:35.264Z,22.93
2017-05-25T07:43:15.694Z,23.01
2017-05-25T07:43:56.094Z,23.01
2017-05-25T07:44:36.501Z,22.98
2017-05-25T07:46:14.128Z,22.91
2017-05-25T07:46:54.931Z,22.89
2017-05-25T07:47:36.085Z,22.83
2017-05-25T07:48:16.532Z,22.93
2017-05-25T07:48:57.830Z,23.1
2017-05-25T07:49:39.955Z,23.14
2017-05-25T07:51:27.787Z,23.73
2017-05-25T07:52:09.010Z,23.67
2017-05-25T07:53:57.369Z,23.91
2017-05-25T07:54:37.835Z,23.96
2017-05-25T07:55:18.271Z,23.92
2017-05-25T07:55:58.731Z,23.86
2017-05-25T07:56:39.548Z,23.84
2017-05-25T07:57:19.978Z,23.88
2017-05-25T07:58:00.433Z,23.99
2017-05-25T07:59:38.076Z,24.1
2017-05-25T08:00:18.545Z,24.09
2017-05-25T08:00:58.934Z,24.07
2017-05-25T08:01:39.666Z,24.41
2017-05-25T08:02:20.919Z,24.88
2017-05-25T08:03:01.371Z,25.21
2017-05-25T08:04:49.193Z,25.92
2017-05-25T08:05:29.484Z,25.98
2017-05-25T08:06:10.054Z,25.96
2017-05-25T08:06:51.968Z,26.07
2017-05-25T08:07:32.335Z,26.1
2017-05-25T08:08:12.874Z,26.64
2017-05-25T08:08:53.336Z,27.11
2017-05-25T08:09:34.597Z,27.81
2017-05-25T08:10:15.267Z,28.46
2017-05-25T08:10:56.260Z,29.1
2017-05-25T08:11:36.804Z,29.89
2017-05-25T08:12:17.231Z,30.49
2017-05-25T08:12:57.755Z,31.11
2017-05-25T08:13:38.163Z,31.73
2017-05-25T08:14:18.858Z,32.27
2017-05-25T08:15:00.239Z,32.72
2017-05-25T08:15:40.724Z,33.04
2017-05-25T08:16:21.720Z,33.44
2017-05-25T08:17:02.237Z,33.77
2017-05-25T08:17:42.853Z,34.09
2017-05-25T08:18:23.438Z,34.44
2017-05-25T08:19:05.806Z,34.82
2017-05-25T08:19:46.214Z,35.18
2017-05-25T08:20:26.663Z,35.44
2017-05-25T08:21:07.123Z,35.63
2017-05-25T08:21:48.582Z,35.81
2017-05-25T08:22:29.026Z,35.97
2017-05-25T08:23:09.467Z,36.14
2017-05-25T08:25:02.426Z,37.15
2017-05-25T08:25:42.850Z,37.34
2017-05-25T08:26:23.284Z,37.57
2017-05-25T08:27:03.793Z,37.6
2017-05-25T08:27:44.233Z,37.78
2017-05-25T08:28:24.746Z,37.91
2017-05-25T08:29:05.138Z,38.19
2017-05-25T08:29:45.603Z,38.32
2017-05-25T08:30:25.970Z,38.42
2017-05-25T08:31:07.052Z,38.47
2017-05-25T08:31:47.709Z,38.28
2017-05-25T08:32:29.588Z,38.02
2017-05-25T08:34:27.380Z,36.99
2017-05-25T08:35:07.880Z,36.54
2017-05-25T08:35:48.332Z,36.16
2017-05-25T08:36:28.753Z,35.81
2017-05-25T08:37:09.164Z,35.86
2017-05-25T08:37:49.554Z,36.09
2017-05-25T08:38:30.808Z,36.28
2017-05-25T08:39:12.799Z,36.57
2017-05-25T08:39:53.191Z,36.81
2017-05-25T08:40:34.685Z,37.19
2017-05-25T08:41:15.232Z,37.53
2017-05-25T08:41:55.673Z,37.83
2017-05-25T08:42:36.762Z,38.09
2017-05-25T08:43:18.103Z,38.25
2017-05-25T08:43:58.556Z,38.38
2017-05-25T08:44:38.963Z,38.53
2017-05-25T08:45:21.363Z,38.7
2017-05-25T08:46:01.833Z,38.68
2017-05-25T08:46:42.272Z,38.68
2017-05-25T08:47:22.798Z,38.69
2017-05-25T08:48:06.220Z,38.84
2017-05-25T08:48:46.629Z,39.01
2017-05-25T08:49:26.960Z,39.08
2017-05-25T08:50:07.523Z,39.08
2017-05-25T08:51:46.027Z,39.15
2017-05-25T08:52:27.028Z,39.32
2017-05-25T08:53:07.737Z,39.39
2017-05-25T08:53:48.508Z,39.39
2017-05-25T08:54:29.538Z,39.44
2017-05-25T08:55:10.860Z,39.41
2017-05-25T08:55:52.208Z,39.38
2017-05-25T08:56:34.371Z,39.57
2017-05-25T08:57:15.597Z,39.82
2017-05-25T08:57:55.982Z,40.07
2017-05-25T08:58:37.284Z,40.19
2017-05-25T08:59:18.470Z,40.36
2017-05-25T08:59:59.686Z,40.48
2017-05-25T09:00:40.788Z,40.58
2017-05-25T09:01:21.924Z,40.77
2017-05-25T09:02:02.343Z,40.96
2017-05-25T09:02:42.808Z,41.2
2017-05-25T09:04:58.886Z,41.9
2017-05-25T09:05:39.324Z,41.9
2017-05-25T09:06:19.776Z,41.93
2017-05-25T09:07:00.777Z,42.02
2017-05-25T09:07:41.370Z,42.21
2017-05-25T09:08:22.288Z,42.29
2017-05-25T09:09:02.792Z,42.49
2017-05-25T09:09:43.407Z,42.74
2017-05-25T09:10:25.188Z,42.82
2017-05-25T09:12:17.862Z,43.34
2017-05-25T09:12:59.011Z,43.5
2017-05-25T09:13:39.496Z,43.54
2017-05-25T09:14:20.254Z,43.49
2017-05-25T09:15:01.334Z,43.39
2017-05-25T09:15:41.750Z,43.41
2017-05-25T09:16:22.237Z,43.46
2017-05-25T09:17:04.274Z,43.35
2017-05-25T09:17:44.693Z,43.44
2017-05-25T09:18:25.091Z,43.44
2017-05-25T09:19:06.193Z,43.5
2017-05-25T09:19:47.359Z,43.44
2017-05-25T09:20:27.808Z,43.54
2017-05-25T09:21:08.226Z,43.66
2017-05-25T09:21:48.716Z,43.7
2017-05-25T09:22:29.122Z,43.73
2017-05-25T09:23:09.568Z,43.69
2017-05-25T09:23:50.044Z,43.87
2017-05-25T09:24:31.341Z,43.8
2017-05-25T09:25:13.007Z,43.97
2017-05-25T09:26:50.644Z,44.1
2017-05-25T09:27:31.087Z,44.06
2017-05-25T09:28:11.987Z,44.03
2017-05-25T09:28:52.461Z,44.02
2017-05-25T09:29:32.907Z,43.94
2017-05-25T09:30:13.327Z,44.09
2017-05-25T09:30:54.143Z,44.07
2017-05-25T09:31:34.624Z,44.04
2017-05-25T09:32:15.071Z,43.85
2017-05-25T09:34:03.188Z,43.32
2017-05-25T09:34:43.885Z,43.05
2017-05-25T09:35:24.343Z,42.9
2017-05-25T09:36:04.794Z,42.86
2017-05-25T09:36:45.238Z,42.87
2017-05-25T09:37:25.673Z,42.84
2017-05-25T09:38:06.170Z,42.86
2017-05-25T09:38:46.639Z,42.99
2017-05-25T09:39:27.101Z,42.99
2017-05-25T09:40:07.606Z,43.09
2017-05-25T09:40:48.053Z,43.18
2017-05-25T09:41:28.485Z,43.36
2017-05-25T09:42:08.977Z,43.62
2017-05-25T09:42:49.423Z,43.85
2017-05-25T09:43:29.857Z,43.91
2017-05-25T09:44:10.294Z,43.94
2017-05-25T09:44:50.730Z,43.81
2017-05-25T09:45:31.168Z,43.44
2017-05-25T09:46:11.782Z,42.93
2017-05-25T09:46:53.806Z,42.44
2017-05-25T09:47:34.250Z,41.86
2017-05-25T09:48:14.688Z,41.2
2017-05-25T09:48:55.231Z,40.83
2017-05-25T09:49:35.732Z,40.76
2017-05-25T09:50:16.109Z,41.05
2017-05-25T09:50:56.504Z,41.32
2017-05-25T09:51:36.906Z,41.68